Time;durP1;ratioP1;P1;durP2;ratioP2;P2;SDS_P1;SDS_P2;PMS_P1;PMS_P2;Temp;Humidity;BMP_temperature;BMP_pressure;BME280_temperature;BME280_humidity;BME280_pressure;Samples;Min_cycle;Max_cycle;Signal;HPM_P1;HPM_P2
2021/10/15 00:01:30;;;;;;;6.40;4.83;;;;;;;;;;5077399;28;20500;-91
2021/10/15 00:03:58;;;;;;;9.77;4.37;;;;;;;;;;5075273;28;20821;-94
2021/10/15 00:06:26;;;;;;;8.53;4.90;;;;;;;;;;5075602;28;20819;-89
2021/10/15 00:08:53;;;;;;;8.63;4.63;;;;;;;;;;5074567;28;20540;-89
2021/10/15 00:11:20;;;;;;;6.70;4.40;;;;;;;;;;5070466;28;20948;-89
2021/10/15 00:13:48;;;;;;;6.30;4.87;;;4.50;99.90;;;;;;5076008;28;20452;-88
2021/10/15 00:16:15;;;;;;;7.87;4.80;;;;;;;;;;5069908;28;20433;-92
2021/10/15 00:18:42;;;;;;;5.10;4.23;;;;;;;;;;5075780;28;20449;-88
2021/10/15 00:21:10;;;;;;;9.30;4.73;;;;;;;;;;5072097;28;20823;-88
2021/10/15 00:23:37;;;;;;;8.80;4.70;;;;;;;;;;5073562;28;20450;-88
2021/10/15 00:26:04;;;;;;;6.20;5.10;;;;;;;;;;5071672;28;20822;-87
2021/10/15 00:28:31;;;;;;;7.90;5.40;;;;;;;;;;5074702;28;20457;-87
2021/10/15 00:31:00;;;;;;;5.77;5.00;;;4.70;99.90;;;;;;5074807;28;20465;-87
2021/10/15 00:33:27;;;;;;;6.53;5.00;;;;;;;;;;5074599;28;20450;-88
2021/10/15 00:35:54;;;;;;;9.00;5.37;;;;;;;;;;5074562;28;20457;-92
2021/10/15 00:38:22;;;;;;;6.10;5.40;;;;;;;;;;5073426;28;20484;-87
2021/10/15 00:40:49;;;;;;;7.17;5.40;;;;;;;;;;5074436;28;20493;-88
2021/10/15 00:43:16;;;;;;;6.97;5.60;;;;;;;;;;5074209;28;20837;-86
2021/10/15 00:45:44;;;;;;;8.00;5.40;;;;;;;;;;5074386;28;21138;-88
2021/10/15 00:48:12;;;;;;;6.50;5.20;;;4.90;99.90;;;;;;5073973;28;20953;-89
2021/10/15 00:50:40;;;;;;;6.80;5.03;;;;;;;;;;5074329;28;20959;-87
2021/10/15 00:53:07;;;;;;;14.33;5.93;;;;;;;;;;5073160;28;20449;-87
2021/10/15 00:55:34;;;;;;;7.17;5.97;;;;;;;;;;5073946;28;20484;-88
2021/10/15 00:58:02;;;;;;;7.00;5.40;;;4.80;99.90;;;;;;5069760;28;20454;-88
2021/10/15 01:00:29;;;;;;;7.17;4.47;;;;;;;;;;5073987;28;20446;-88
2021/10/15 01:02:56;;;;;;;7.97;6.00;;;;;;;;;;5070835;28;20485;-88
2021/10/15 01:05:25;;;;;;;6.20;4.70;;;4.80;99.90;;;;;;5073989;28;20453;-89
2021/10/15 01:07:53;;;;;;;6.00;5.17;;;;;;;;;;5069811;28;20820;-88
2021/10/15 01:10:20;;;;;;;6.83;5.27;;;;;;;;;;5071163;28;20458;-87
2021/10/15 01:12:48;;;;;;;6.20;5.07;;;;;;;;;;5073577;28;20461;-89
2021/10/15 01:15:15;;;;;;;6.57;5.40;;;;;;;;;;5073933;28;20473;-88
2021/10/15 01:17:42;;;;;;;6.60;5.50;;;;;;;;;;5073782;28;20449;-89
2021/10/15 01:20:12;;;;;;;5.23;4.73;;;4.70;99.90;;;;;;5067184;28;20442;-92
2021/10/15 01:22:39;;;;;;;12.20;5.87;;;;;;;;;;5069637;28;20485;-87
2021/10/15 01:25:07;;;;;;;6.53;5.57;;;;;;;;;;5075057;28;20453;-88
2021/10/15 01:27:34;;;;;;;7.43;5.57;;;;;;;;;;5081074;28;20450;-88
2021/10/15 01:30:02;;;;;;;10.47;5.43;;;4.90;99.90;;;;;;5074335;28;20453;-87
2021/10/15 01:32:29;;;;;;;8.40;5.30;;;;;;;;;;5039327;28;20445;-88
2021/10/15 01:34:56;;;;;;;7.77;5.17;;;;;;;;;;5075380;28;20468;-88
2021/10/15 01:37:25;;;;;;;8.23;5.37;;;;;;;;;;5073341;28;20469;-88
2021/10/15 01:39:52;;;;;;;6.40;5.53;;;;;;;;;;5072846;28;20460;-89
2021/10/15 01:45:05;;;;;;;7.60;5.33;;;;;;;;;;5073861;28;20797;-90
2021/10/15 01:47:32;;;;;;;7.30;4.90;;;;;;;;;;5074080;28;20445;-89
2021/10/15 01:49:59;;;;;;;5.70;4.97;;;;;;;;;;5073842;28;20452;-90
2021/10/15 01:52:27;;;;;;;7.10;5.20;;;5.00;99.90;;;;;;5067837;28;20457;-89
2021/10/15 01:54:54;;;;;;;7.63;5.67;;;;;;;;;;5068507;28;20964;-89
2021/10/15 01:57:21;;;;;;;7.60;5.17;;;;;;;;;;5054344;28;20767;-88
2021/10/15 01:59:49;;;;;;;7.73;5.30;;;;;;;;;;5050738;28;20921;-89
2021/10/15 02:02:16;;;;;;;7.40;5.03;;;;;;;;;;5054234;28;20497;-88
2021/10/15 02:04:43;;;;;;;5.30;4.77;;;;;;;;;;5051063;28;20457;-88
2021/10/15 02:07:10;;;;;;;7.73;4.90;;;;;;;;;;5049614;28;21252;-89
2021/10/15 02:09:38;;;;;;;8.30;5.23;;;5.20;99.90;;;;;;5053553;28;20453;-88
2021/10/15 02:12:06;;;;;;;7.57;4.80;;;;;;;;;;5053545;28;20461;-91
2021/10/15 02:14:33;;;;;;;6.57;5.40;;;;;;;;;;5053940;28;20458;-87
2021/10/15 02:17:00;;;;;;;5.80;4.67;;;;;;;;;;5051003;28;20451;-93
2021/10/15 02:19:27;;;;;;;9.03;5.47;;;;;;;;;;5047906;28;20465;-89
2021/10/15 02:21:54;;;;;;;6.40;4.57;;;;;;;;;;5053163;28;20502;-90
2021/10/15 02:24:22;;;;;;;6.60;5.40;;;5.20;99.90;;;;;;5054147;28;20462;-89
2021/10/15 02:26:50;;;;;;;8.10;5.60;;;5.30;99.90;;;;;;5049744;28;20445;-89
2021/10/15 02:29:17;;;;;;;9.10;5.30;;;;;;;;;;5050123;28;20438;-92
2021/10/15 02:31:45;;;;;;;6.33;4.50;;;;;;;;;;5053618;28;20453;-88
2021/10/15 02:34:12;;;;;;;7.43;4.90;;;;;;;;;;5053755;28;20813;-87
2021/10/15 02:36:39;;;;;;;6.33;5.23;;;;;;;;;;5053931;28;20438;-88
2021/10/15 02:39:07;;;;;;;9.33;5.63;;;;;;;;;;5052823;28;20446;-89
2021/10/15 02:41:37;;;;;;;5.93;5.00;;;;;;;;;;5054524;28;20486;-89
2021/10/15 02:44:07;;;;;;;8.07;5.97;;;5.40;99.90;;;;;;5054843;28;20501;-88
2021/10/15 02:46:34;;;;;;;7.57;5.43;;;;;;;;;;5054110;28;20814;-88
2021/10/15 02:49:01;;;;;;;7.77;6.00;;;;;;;;;;5054428;28;20454;-92
2021/10/15 02:51:28;;;;;;;8.40;6.07;;;;;;;;;;5054384;28;20459;-88
2021/10/15 02:53:55;;;;;;;7.93;5.97;;;;;;;;;;5060886;28;20470;-87
2021/10/15 02:56:23;;;;;;;7.57;5.43;;;;;;;;;;5068306;28;20481;-88
2021/10/15 02:58:50;;;;;;;7.13;5.30;;;;;;;;;;5070370;28;20460;-89
2021/10/15 03:01:18;;;;;;;8.63;5.30;;;5.30;99.90;;;;;;5073201;28;20446;-92
2021/10/15 03:03:45;;;;;;;7.50;5.67;;;;;;;;;;5070517;28;20457;-88
2021/10/15 03:06:12;;;;;;;6.97;5.43;;;;;;;;;;5073771;28;20445;-93
2021/10/15 03:08:39;;;;;;;8.63;5.90;;;;;;;;;;5072676;28;20449;-88
2021/10/15 03:11:07;;;;;;;5.37;4.87;;;;;;;;;;5073433;28;20453;-89
2021/10/15 03:13:34;;;;;;;7.20;5.30;;;;;;;;;;5073229;28;20469;-88
2021/10/15 03:16:01;;;;;;;5.60;5.00;;;;;;;;;;5073553;28;20453;-88
2021/10/15 03:18:29;;;;;;;6.47;5.00;;;5.10;99.90;;;;;;5073575;28;20445;-91
2021/10/15 03:20:56;;;;;;;7.57;5.20;;;;;;;;;;5075231;28;20457;-88
2021/10/15 03:23:23;;;;;;;7.30;5.37;;;;;;;;;;5077131;28;20492;-89
2021/10/15 03:25:50;;;;;;;6.20;5.10;;;;;;;;;;5077865;28;20449;-89
2021/10/15 03:28:18;;;;;;;8.77;6.43;;;;;;;;;;5078136;28;20523;-93
2021/10/15 03:30:45;;;;;;;8.57;6.60;;;;;;;;;;5071972;28;20442;-93
2021/10/15 03:33:12;;;;;;;7.87;5.20;;;;;;;;;;5073349;28;20444;-89
2021/10/15 03:35:41;;;;;;;8.70;5.30;;;5.20;99.90;;;;;;5077441;28;20460;-90
2021/10/15 03:38:08;;;;;;;7.23;4.90;;;;;;;;;;5076979;28;20509;-89
2021/10/15 03:40:35;;;;;;;7.67;4.63;;;;;;;;;;5076867;28;20941;-88
2021/10/15 03:43:02;;;;;;;9.10;5.63;;;;;;;;;;5074009;28;20488;-90
2021/10/15 03:45:29;;;;;;;6.93;6.00;;;;;;;;;;5074245;28;20948;-89
2021/10/15 03:47:57;;;;;;;7.03;5.47;;;;;;;;;;5077083;28;20445;-87
2021/10/15 03:50:24;;;;;;;7.07;5.20;;;;;;;;;;5078625;28;20452;-87
2021/10/15 03:52:52;;;;;;;7.13;5.40;;;4.90;99.90;;;;;;5078063;28;20957;-88
2021/10/15 03:55:19;;;;;;;6.80;5.00;;;;;;;;;;5077153;28;20798;-88
2021/10/15 03:57:47;;;;;;;6.27;4.97;;;;;;;;;;5077196;28;20461;-88
2021/10/15 04:00:14;;;;;;;5.97;4.70;;;5.40;99.90;;;;;;5077022;28;20449;-88
2021/10/15 04:02:42;;;;;;;9.50;5.47;;;5.60;99.90;;;;;;5076043;28;20480;-91
2021/10/15 04:05:10;;;;;;;8.13;5.40;;;5.60;99.90;;;;;;5076731;28;20450;-90
2021/10/15 04:07:37;;;;;;;5.80;5.07;;;;;;;;;;5075882;28;20445;-90
2021/10/15 04:10:08;;;;;;;6.73;5.27;;;5.70;99.90;;;;;;5077078;28;20456;-88
2021/10/15 04:12:35;;;;;;;8.67;5.73;;;;;;;;;;5077638;28;20453;-90
2021/10/15 04:15:04;;;;;;;6.23;4.90;;;5.40;99.90;;;;;;5076646;28;20438;-88
2021/10/15 04:17:31;;;;;;;6.90;5.30;;;;;;;;;;5077334;28;20821;-91
2021/10/15 04:19:58;;;;;;;7.93;5.20;;;;;;;;;;5078002;28;20456;-86
2021/10/15 04:22:26;;;;;;;5.80;5.10;;;;;;;;;;5083133;28;20492;-89
2021/10/15 04:24:53;;;;;;;8.63;5.53;;;;;;;;;;5077692;28;20450;-92
2021/10/15 04:27:21;;;;;;;7.67;6.03;;;5.50;99.90;;;;;;5071894;28;20453;-89
2021/10/15 04:29:48;;;;;;;11.23;6.60;;;;;;;;;;5073927;28;20453;-88
2021/10/15 04:32:16;;;;;;;8.00;5.87;;;;;;;;;;5076590;28;20804;-88
2021/10/15 04:34:43;;;;;;;9.83;6.87;;;;;;;;;;5076324;28;20450;-89
2021/10/15 04:37:10;;;;;;;10.47;6.40;;;;;;;;;;5075158;28;20457;-88
2021/10/15 04:39:37;;;;;;;11.10;5.13;;;;;;;;;;5077190;28;20457;-88
2021/10/15 04:42:05;;;;;;;6.63;4.60;;;6.10;99.90;;;;;;5076207;28;20477;-90
2021/10/15 04:44:33;;;;;;;6.53;4.90;;;6.00;99.90;;;;;;5076903;28;20956;-91
2021/10/15 04:47:00;;;;;;;7.57;4.90;;;;;;;;;;5079116;28;20454;-89
2021/10/15 04:49:27;;;;;;;6.10;4.77;;;;;;;;;;5077903;28;20458;-87
2021/10/15 04:51:54;;;;;;;5.10;3.77;;;;;;;;;;5077707;28;20453;-89
2021/10/15 04:54:21;;;;;;;9.73;5.67;;;;;;;;;;5079484;28;20463;-90
2021/10/15 04:56:48;;;;;;;6.73;5.00;;;;;;;;;;5080315;28;20843;-87
2021/10/15 04:59:16;;;;;;;5.93;4.63;;;;;;;;;;5081498;28;20445;-88
2021/10/15 05:01:44;;;;;;;9.70;7.67;;;6.10;99.90;;;;;;5078288;28;20446;-88
2021/10/15 05:04:11;;;;;;;5.57;4.50;;;;;;;;;;5079946;28;20446;-87
2021/10/15 05:06:39;;;;;;;7.03;5.20;;;;;;;;;;5080136;28;20438;-87
2021/10/15 05:09:25;;;;;;;8.70;5.00;;;6.20;99.90;;;;;;5080952;28;20457;-88
2021/10/15 05:11:54;;;;;;;4.90;4.40;;;;;;;;;;5080862;28;20441;-87
2021/10/15 05:14:21;;;;;;;8.20;5.50;;;;;;;;;;5080397;28;20820;-90
2021/10/15 05:16:52;;;;;;;6.13;5.30;;;;;;;;;;5073636;28;20457;-91
2021/10/15 05:19:19;;;;;;;6.93;5.90;;;;;;;;;;5078392;28;20473;-90
2021/10/15 05:21:46;;;;;;;5.50;4.30;;;;;;;;;;5080270;28;20452;-88
2021/10/15 05:24:13;;;;;;;6.70;4.53;;;;;;;;;;5079608;28;20454;-92
2021/10/15 05:26:40;;;;;;;14.03;5.63;;;;;;;;;;5078489;28;20449;-90
2021/10/15 05:29:09;;;;;;;5.17;4.27;;;;;;;;;;5078975;28;20446;-92
2021/10/15 05:31:36;;;;;;;7.80;6.97;;;;;;;;;;5080088;28;20556;-89
2021/10/15 05:34:04;;;;;;;5.00;4.10;;;6.50;99.90;;;;;;5076237;28;20457;-90
2021/10/15 05:36:31;;;;;;;8.90;4.30;;;;;;;;;;5072016;28;20453;-91
2021/10/15 05:38:59;;;;;;;12.70;4.30;;;;;;;;;;5084476;28;20442;-88
2021/10/15 05:41:26;;;;;;;7.23;4.43;;;;;;;;;;5083868;28;20456;-87
2021/10/15 05:43:53;;;;;;;5.10;3.93;;;;;;;;;;5082072;28;20485;-88
2021/10/15 05:46:20;;;;;;;4.67;3.93;;;;;;;;;;5080320;28;20563;-88
2021/10/15 05:48:47;;;;;;;5.20;4.70;;;;;;;;;;5086007;28;20567;-91
2021/10/15 05:51:16;;;;;;;5.40;4.50;;;;;;;;;;5080816;28;20434;-91
2021/10/15 05:53:44;;;;;;;5.53;3.73;;;;;;;;;;5077094;28;20850;-89
2021/10/15 05:56:40;;;;;;;6.37;4.10;;;;;;;;;;5075875;28;20485;-89
2021/10/15 05:59:06;;;;;;;3.37;2.37;;;;;;;;;;5078800;28;20798;-92
2021/10/15 06:01:35;;;;;;;4.70;3.70;;;7.40;99.90;;;;;;5072658;28;20450;-88
2021/10/15 06:15:07;;;;;;;9.90;5.20;;;8.50;99.90;;;;;;5078298;28;20889;-90
2021/10/15 06:17:42;;;;;;;5.67;4.50;;;;;;;;;;5077542;28;20450;-90
2021/10/15 06:20:10;;;;;;;10.60;4.80;;;8.00;99.90;;;;;;5074703;28;20948;-91
2021/10/15 06:22:39;;;;;;;5.77;4.97;;;7.70;99.90;;;;;;5074796;28;20483;-88
2021/10/15 06:25:07;;;;;;;6.10;5.00;;;8.30;99.90;;;;;;5075337;28;20457;-88
2021/10/15 06:27:34;;;;;;;7.40;4.63;;;;;;;;;;5073228;28;20457;-88
2021/10/15 06:30:01;;;;;;;5.67;4.53;;;;;;;;;;5074288;28;20454;-86
2021/10/15 06:32:28;;;;;;;5.10;4.67;;;;;;;;;;5073761;28;20446;-88
2021/10/15 06:34:56;;;;;;;5.10;4.40;;;;;;;;;;5070049;28;20536;-87
2021/10/15 06:37:23;;;;;;;6.50;4.70;;;;;;;;;;5072550;28;20442;-89
2021/10/15 06:39:51;;;;;;;6.10;4.60;;;8.00;99.90;;;;;;5073126;28;20441;-88
2021/10/15 06:42:18;;;;;;;6.97;4.90;;;;;;;;;;5076223;28;20528;-88
2021/10/15 06:44:45;;;;;;;6.57;4.30;;;;;;;;;;5076768;28;20454;-86
2021/10/15 06:47:13;;;;;;;10.83;7.40;;;;;;;;;;5076539;28;20940;-86
2021/10/15 06:49:40;;;;;;;13.27;7.10;;;;;;;;;;5078032;28;20441;-88
2021/10/15 06:52:08;;;;;;;9.33;5.07;;;7.70;99.90;;;;;;5079968;28;20470;-87
2021/10/15 06:54:35;;;;;;;5.30;4.17;;;;;;;;;;5076734;28;20449;-86
2021/10/15 06:57:03;;;;;;;6.50;4.90;;;7.90;99.90;;;;;;5059664;28;20474;-87
2021/10/15 06:59:31;;;;;;;5.30;4.40;;;;;;;;;;5059202;28;20450;-90
2021/10/15 07:01:58;;;;;;;6.43;4.47;;;;;;;;;;5068937;28;20423;-89
2021/10/15 07:04:25;;;;;;;6.00;4.53;;;;;;;;;;5065066;28;20510;-86
2021/10/15 07:06:52;;;;;;;5.70;4.30;;;;;;;;;;5066173;28;20447;-88
2021/10/15 07:09:20;;;;;;;7.50;4.70;;;8.40;99.90;;;;;;5082662;23;20489;-87
2021/10/15 07:11:48;;;;;;;4.33;3.87;;;8.90;99.90;;;;;;5080220;23;20493;-88
2021/10/15 07:14:16;;;;;;;10.03;4.17;;;9.30;99.90;;;;;;5065801;28;20451;-85
2021/10/15 07:16:43;;;;;;;5.20;4.17;;;;;;;;;;5068327;28;20458;-86
2021/10/15 07:19:10;;;;;;;5.10;3.70;;;;;;;;;;5063714;28;20450;-87
2021/10/15 07:21:37;;;;;;;5.50;3.80;;;;;;;;;;5061931;28;20457;-87
2021/10/15 07:24:05;;;;;;;4.33;3.43;;;;;;;;;;5065658;28;20502;-86
2021/10/15 07:26:32;;;;;;;3.87;3.50;;;;;;;;;;5062634;28;20450;-86
2021/10/15 07:29:00;;;;;;;4.20;3.80;;;;;;;;;;5059494;28;20427;-91
2021/10/15 07:34:05;;;;;;;4.17;3.77;;;12.20;99.90;;;;;;5097882;23;20489;-86
2021/10/15 07:36:32;;;;;;;4.73;3.90;;;;;;;;;;5054327;28;20450;-86
2021/10/15 07:38:59;;;;;;;5.10;3.17;;;;;;;;;;5054966;28;20454;-86
2021/10/15 07:41:26;;;;;;;3.63;3.30;;;;;;;;;;5062587;28;20439;-86
2021/10/15 07:43:55;;;;;;;3.90;3.50;;;;;;;;;;5063446;28;20490;-87
2021/10/15 07:46:22;;;;;;;3.27;3.07;;;;;;;;;;5059039;28;20469;-86
2021/10/15 07:48:49;;;;;;;3.90;3.50;;;;;;;;;;5060691;28;20439;-87
2021/10/15 07:51:18;;;;;;;3.73;2.90;;;12.00;99.90;;;;;;5073510;23;20841;-87
2021/10/15 07:53:45;;;;;;;3.20;2.80;;;;;;;;;;5043862;28;20470;-86
2021/10/15 07:56:12;;;;;;;3.77;2.97;;;;;;;;;;5045333;28;20462;-87
2021/10/15 07:58:39;;;;;;;3.80;2.80;;;;;;;;;;5046468;28;20458;-87
2021/10/15 08:01:06;;;;;;;5.27;3.67;;;;;;;;;;5037973;28;20443;-95
2021/10/15 08:03:33;;;;;;;3.47;3.17;;;;;;;;;;5036588;28;20865;-91
2021/10/15 08:06:00;;;;;;;3.27;2.50;;;;;;;;;;5045067;28;20494;-93
2021/10/15 08:08:29;;;;;;;3.10;2.77;;;;;;;;;;5046044;28;20455;-86
2021/10/15 08:10:56;;;;;;;4.00;2.70;;;;;;;;;;5044814;28;20447;-90
2021/10/15 08:13:23;;;;;;;2.50;2.30;;;;;;;;;;5041778;28;20452;-88
2021/10/15 08:15:50;;;;;;;2.70;2.50;;;;;;;;;;5042608;28;20451;-92
2021/10/15 08:18:18;;;;;;;2.90;2.60;;;;;;;;;;5043144;28;20447;-91
2021/10/15 08:20:45;;;;;;;3.40;2.83;;;;;;;;;;5176652;23;20473;-85
2021/10/15 08:25:53;;;;;;;2.50;2.30;;;;;;;;;;4704612;26;20492;-94
2021/10/15 08:30:56;;;;;;;3.20;2.87;;;;;;;;;;5060567;23;20478;-91
2021/10/15 08:33:23;;;;;;;3.33;2.90;;;;;;;;;;5042229;28;20454;-95
2021/10/15 08:35:50;;;;;;;5.30;3.27;;;;;;;;;;5046978;28;20439;-96
2021/10/15 08:38:17;;;;;;;2.33;2.13;;;;;;;;;;5044567;28;20443;-96
2021/10/15 08:40:46;;;;;;;2.77;2.23;;;;;;;;;;5038405;28;20442;-95
2021/10/15 08:43:15;;;;;;;2.40;2.20;;;;;;;;;;5047481;28;20495;-93
2021/10/15 08:45:42;;;;;;;4.60;2.47;;;;;;;;;;5057509;28;20455;-96
2021/10/15 08:48:09;;;;;;;3.20;2.00;;;15.10;99.90;;;;;;5040286;28;20446;-94
2021/10/15 08:50:37;;;;;;;2.60;2.20;;;;;;;;;;5032527;28;20444;-95
2021/10/15 08:53:05;;;;;;;2.97;2.30;;;15.90;99.90;;;;;;5037708;28;20562;-95
2021/10/15 08:55:32;;;;;;;2.67;1.87;;;;;;;;;;5038874;28;20447;-95
2021/10/15 08:58:00;;;;;;;3.40;2.10;;;16.40;99.90;;;;;;5036684;28;20443;-96
2021/10/15 09:00:39;;;;;;;10.70;4.30;;;;;;;;;;5269735;23;20472;-90
2021/10/15 09:03:17;;;;;;;2.00;1.77;;;16.60;99.50;;;;;;5030724;28;20460;-90
2021/10/15 09:05:53;;;;;;;2.43;1.40;;;16.80;98.20;;;;;;5023630;28;20455;-93
2021/10/15 09:08:20;;;;;;;2.67;1.80;;;;;;;;;;5021367;28;20935;-87
2021/10/15 09:10:47;;;;;;;1.90;1.50;;;;;;;;;;5045759;28;20451;-89
2021/10/15 09:13:19;;;;;;;3.30;1.90;;;17.90;99.90;;;;;;5042654;28;20502;-91
2021/10/15 09:15:48;;;;;;;2.90;2.13;;;18.00;97.20;;;;;;5041757;28;20826;-90
2021/10/15 09:18:17;;;;;;;4.37;1.90;;;18.10;96.80;;;;;;5038348;28;20962;-91
2021/10/15 09:20:44;;;;;;;2.60;2.20;;;;;;;;;;5035331;28;20459;-90
2021/10/15 09:23:12;;;;;;;2.17;1.97;;;;;;;;;;5041509;28;20459;-92
2021/10/15 09:25:41;;;;;;;3.03;2.37;;;17.50;96.90;;;;;;5041417;28;20459;-90
2021/10/15 09:28:16;;;;;;;3.27;1.93;;;18.00;95.70;;;;;;5040424;28;20447;-87
2021/10/15 09:30:44;;;;;;;5.37;3.20;;;18.60;95.70;;;;;;5036410;28;20484;-86
2021/10/15 09:33:12;;;;;;;5.40;2.10;;;18.30;95.40;;;;;;5034967;28;20455;-93
2021/10/15 09:35:40;;;;;;;3.77;2.13;;;;;;;;;;5035523;28;20810;-93
2021/10/15 09:38:08;;;;;;;4.50;1.80;;;18.00;95.70;;;;;;5034379;28;20443;-89
2021/10/15 09:40:37;;;;;;;3.37;1.80;;;18.30;95.60;;;;;;5036961;28;20455;-87
2021/10/15 09:43:07;;;;;;;2.70;1.60;;;19.00;94.80;;;;;;5039038;28;20451;-94
2021/10/15 09:45:37;;;;;;;1.90;1.70;;;18.50;94.30;;;;;;5043251;28;20455;-91
2021/10/15 09:48:20;;;;;;;1.90;1.70;;;19.00;95.00;;;;;;5049999;28;20934;-91
2021/10/15 09:50:48;;;;;;;1.90;1.80;;;;;;;;;;5042798;28;20478;-88
2021/10/15 09:53:15;;;;;;;2.60;2.30;;;;;;;;;;5034110;28;20475;-89
2021/10/15 09:55:43;;;;;;;1.97;1.77;;;20.00;97.70;;;;;;5044519;28;20454;-87
2021/10/15 09:58:11;;;;;;;2.53;1.53;;;19.60;93.60;;;;;;5045686;28;20463;-88
2021/10/15 10:00:39;;;;;;;2.60;1.90;;;;;;;;;;5043998;28;20450;-87
2021/10/15 10:03:06;;;;;;;1.50;1.40;;;;;;;;;;5053523;23;20486;-87
2021/10/15 10:05:34;;;;;;;1.30;1.20;;;;;;;;;;5062969;28;20455;-89
2021/10/15 10:08:02;;;;;;;2.50;1.87;;;;;;;;;;5057712;28;20445;-87
2021/10/15 10:10:31;;;;;;;2.77;2.10;;;18.20;93.90;;;;;;5063526;28;20451;-89
2021/10/15 10:12:58;;;;;;;1.97;1.60;;;;;;;;;;5057851;28;20449;-87
2021/10/15 10:15:26;;;;;;;2.93;1.70;;;17.70;94.40;;;;;;5063121;28;20494;-86
2021/10/15 10:17:59;;;;;;;3.00;1.87;;;17.60;94.60;;;;;;5058176;28;20447;-87
2021/10/15 10:20:29;;;;;;;2.30;1.90;;;17.40;95.60;;;;;;5060606;28;20497;-88
2021/10/15 10:23:06;;;;;;;1.60;1.50;;;17.40;95.70;;;;;;5059332;28;20518;-88
2021/10/15 10:25:36;;;;;;;1.90;1.70;;;18.80;97.80;;;;;;5035812;23;20484;-88
2021/10/15 10:28:14;;;;;;;2.80;1.87;;;18.80;93.90;;;;;;5023164;28;20429;-87
2021/10/15 10:30:43;;;;;;;2.60;1.83;;;18.30;93.30;;;;;;5014713;28;20452;-90
2021/10/15 10:33:11;;;;;;;2.30;1.70;;;;;;;;;;5023747;28;20448;-87
2021/10/15 10:35:39;;;;;;;1.53;1.43;;;18.10;99.90;;;;;;5021396;28;20483;-88
2021/10/15 10:38:41;;;;;;;3.90;2.00;;;18.80;94.50;;;;;;5027234;23;20480;-88
2021/10/15 10:41:28;;;;;;;1.83;1.67;;;18.80;96.10;;;;;;5018597;28;20819;-87
2021/10/15 10:44:22;;;;;;;4.30;2.00;;;18.60;98.60;;;;;;5022006;28;20480;-87
2021/10/15 10:47:14;;;;;;;2.10;1.90;;;18.30;95.00;;;;;;5020383;28;20452;-87
2021/10/15 10:49:43;;;;;;;2.43;1.57;;;18.00;94.40;;;;;;5019113;28;20927;-88
2021/10/15 10:52:22;;;;;;;3.17;2.43;;;17.80;94.80;;;;;;5043173;23;20491;-88
2021/10/15 10:54:50;;;;;;;2.10;1.60;;;17.80;95.20;;;;;;5063736;23;20872;-87
2021/10/15 10:57:26;;;;;;;3.33;1.90;;;18.20;94.50;;;;;;5061845;28;20960;-87
2021/10/15 10:59:53;;;;;;;3.77;2.67;;;18.20;95.40;;;;;;5057452;28;20459;-87
2021/10/15 11:02:22;;;;;;;5.30;4.00;;;18.40;94.80;;;;;;5052193;28;20816;-88
2021/10/15 11:04:57;;;;;;;4.83;3.33;;;19.20;99.90;;;;;;5064378;28;20556;-87
2021/10/15 11:07:27;;;;;;;9.00;4.13;;;19.50;94.90;;;;;;5045213;23;20501;-88
2021/10/15 11:09:57;;;;;;;4.77;3.47;;;18.90;94.40;;;;;;5046428;28;20906;-87
2021/10/15 11:12:58;;;;;;;3.70;3.17;;;17.40;93.50;;;;;;5043386;28;20447;-89
2021/10/15 11:15:33;;;;;;;3.77;2.97;;;20.00;94.70;;;;;;5040827;28;20538;-94
2021/10/15 11:18:00;;;;;;;2.40;2.20;;;;;;;;;;5032244;28;20473;-88
2021/10/15 11:20:29;;;;;;;2.53;2.00;;;19.10;99.90;;;;;;5033747;28;20439;-91
2021/10/15 11:22:58;;;;;;;4.90;2.60;;;19.00;93.40;;;;;;5030384;28;20443;-90
2021/10/15 11:25:31;;;;;;;2.93;2.63;;;18.50;93.50;;;;;;5029885;28;20443;-89
2021/10/15 11:28:00;;;;;;;3.17;2.17;;;19.10;94.00;;;;;;5030764;28;20998;-88
2021/10/15 11:30:31;;;;;;;2.40;2.20;;;18.70;92.80;;;;;;5065824;23;20504;-91
2021/10/15 11:32:58;;;;;;;2.23;2.03;;;;;;;;;;5088685;23;20509;-92
2021/10/15 11:35:27;;;;;;;1.60;1.50;;;19.40;93.10;;;;;;5047859;28;20495;-91
2021/10/15 11:37:57;;;;;;;2.70;2.20;;;19.20;93.20;;;;;;5038500;28;20443;-88
2021/10/15 11:40:29;;;;;;;1.97;1.87;;;19.60;93.20;;;;;;5050434;28;20459;-89
2021/10/15 11:43:06;;;;;;;3.37;2.23;;;19.90;90.90;;;;;;5037557;28;20448;-92
2021/10/15 11:45:35;;;;;;;2.57;2.37;;;20.40;90.10;;;;;;5032376;28;20611;-92
2021/10/15 11:48:04;;;;;;;3.67;2.83;;;20.00;91.30;;;;;;5039130;28;20451;-92
2021/10/15 11:50:48;;;;;;;3.33;2.40;;;20.60;92.00;;;;;;5034692;28;20442;-92
2021/10/15 11:53:17;;;;;;;3.07;2.40;;;20.30;93.00;;;;;;5015771;28;20444;-91
2021/10/15 11:55:47;;;;;;;12.70;2.70;;;19.20;94.30;;;;;;5013901;28;20495;-89
2021/10/15 11:58:19;;;;;;;3.17;2.03;;;19.90;94.10;;;;;;5016343;28;20944;-90
2021/10/15 12:01:11;;;;;;;8.73;2.50;;;20.20;94.20;;;;;;5016550;28;20444;-91
2021/10/15 12:03:40;;;;;;;2.83;2.60;;;20.40;93.30;;;;;;4998261;28;20460;-89
2021/10/15 12:06:19;;;;;;;2.63;2.10;;;20.40;92.70;;;;;;5016383;28;20526;-88
2021/10/15 12:08:47;;;;;;;2.80;1.90;;;20.90;92.20;;;;;;5015834;28;20443;-92
2021/10/15 12:11:43;;;;;;;5.47;2.73;;;20.20;92.70;;;;;;5016977;28;20449;-92
2021/10/15 12:14:12;;;;;;;3.77;2.20;;;19.70;93.30;;;;;;5016428;28;20483;-90
2021/10/15 12:16:47;;;;;;;3.10;2.10;;;19.20;93.40;;;;;;5016141;28;20452;-90
2021/10/15 12:19:22;;;;;;;5.67;2.20;;;18.40;94.00;;;;;;5016218;28;20451;-90
2021/10/15 12:21:50;;;;;;;2.43;2.23;;;18.90;94.20;;;;;;5015968;28;20467;-86
2021/10/15 12:24:27;;;;;;;3.93;2.47;;;18.30;93.30;;;;;;5011806;28;20805;-93
2021/10/15 12:27:07;;;;;;;3.73;2.63;;;19.00;93.30;;;;;;5015562;28;20448;-87
2021/10/15 12:29:36;;;;;;;3.73;1.90;;;19.50;93.60;;;;;;5013122;28;20544;-88
2021/10/15 12:32:28;;;;;;;2.03;1.90;;;19.00;93.70;;;;;;5013118;28;20444;-94
2021/10/15 12:35:01;;;;;;;3.30;2.10;;;18.60;99.90;;;;;;4985984;28;20489;-86
2021/10/15 12:37:34;;;;;;;4.07;2.40;;;19.10;93.90;;;;;;4995617;28;20446;-88
2021/10/15 12:40:29;;;;;;;2.27;2.07;;;19.20;94.10;;;;;;4996681;28;20968;-90
2021/10/15 12:43:08;;;;;;;2.90;2.30;;;19.50;94.00;;;;;;4983984;28;20867;-91
2021/10/15 12:45:37;;;;;;;4.23;2.40;;;19.30;94.40;;;;;;4996566;28;20505;-91
2021/10/15 12:48:06;;;;;;;5.60;2.63;;;19.30;94.40;;;;;;4993258;28;20457;-93
2021/10/15 12:50:35;;;;;;;3.50;2.87;;;18.90;95.00;;;;;;4993147;28;20991;-87
2021/10/15 12:53:16;;;;;;;3.50;2.80;;;18.50;95.00;;;;;;4989775;28;20445;-88
2021/10/15 12:55:53;;;;;;;2.70;2.50;;;17.80;96.70;;;;;;4997196;28;20493;-86
2021/10/15 12:58:22;;;;;;;2.90;2.70;;;18.10;96.90;;;;;;4995921;28;20757;-90
2021/10/15 13:00:52;;;;;;;3.27;2.97;;;18.40;99.90;;;;;;4995806;28;20445;-87
2021/10/15 13:03:20;;;;;;;4.63;3.27;;;18.30;96.40;;;;;;4995750;28;20453;-87
2021/10/15 13:05:47;;;;;;;4.53;3.80;;;17.70;97.00;;;;;;5000854;28;20456;-84
2021/10/15 13:08:16;;;;;;;4.60;3.20;;;17.60;98.00;;;;;;4994769;28;20468;-88
2021/10/15 13:10:44;;;;;;;8.63;3.40;;;17.60;97.70;;;;;;4994827;28;20778;-86
2021/10/15 13:13:11;;;;;;;3.37;3.00;;;;;;;;;;4975488;28;20954;-86
2021/10/15 13:15:40;;;;;;;3.33;3.03;;;16.90;98.40;;;;;;4975262;28;21015;-86
2021/10/15 13:18:07;;;;;;;7.70;3.23;;;;;;;;;;4975137;28;20957;-85
2021/10/15 13:20:34;;;;;;;5.10;3.47;;;;;;;;;;4975260;28;20464;-92
2021/10/15 13:23:02;;;;;;;4.00;3.27;;;;;;;;;;4975492;28;20450;-86
2021/10/15 13:25:30;;;;;;;3.07;2.77;;;16.50;99.90;;;;;;4973348;28;20935;-87
2021/10/15 13:27:57;;;;;;;4.57;3.20;;;;;;;;;;4976032;28;20451;-87
2021/10/15 13:30:25;;;;;;;4.23;3.30;;;16.50;99.90;;;;;;4975566;28;20458;-92
2021/10/15 13:32:53;;;;;;;6.50;3.07;;;16.40;99.90;;;;;;4979206;28;20481;-94
2021/10/15 13:35:21;;;;;;;3.53;3.23;;;;;;;;;;4996173;28;20489;-93
2021/10/15 13:37:54;;;;;;;3.60;2.77;;;;;;;;;;4994081;28;20959;-87
2021/10/15 13:40:25;;;;;;;4.23;3.47;;;;;;;;;;4995077;28;20450;-93
2021/10/15 13:45:47;;;;;;;6.20;3.60;;;;;;;;;;5004517;28;20951;-91
2021/10/15 13:51:00;;;;;;;3.47;3.17;;;;;;;;;;5010936;28;20452;-85
2021/10/15 13:53:29;;;;;;;7.33;3.57;;;;;;;;;;5009911;28;20511;-93
2021/10/15 13:56:00;;;;;;;4.00;3.60;;;;;;;;;;5014265;28;20492;-87
2021/10/15 13:58:32;;;;;;;5.17;3.40;;;;;;;;;;5014113;28;20493;-93
2021/10/15 14:01:02;;;;;;;3.53;3.10;;;;;;;;;;5014246;28;20507;-88
2021/10/15 14:06:15;;;;;;;3.97;3.33;;;;;;;;;;5013603;28;20915;-88
2021/10/15 14:08:43;;;;;;;5.40;3.50;;;;;;;;;;5012529;28;20525;-86
2021/10/15 14:11:10;;;;;;;3.43;2.93;;;;;;;;;;5014063;28;20448;-88
2021/10/15 14:13:38;;;;;;;4.33;3.03;;;15.50;99.90;;;;;;5014328;28;20460;-88
2021/10/15 14:16:05;;;;;;;3.17;2.87;;;;;;;;;;5014674;28;20452;-91
2021/10/15 14:18:33;;;;;;;4.70;2.87;;;15.50;99.90;;;;;;5014514;28;20453;-91
2021/10/15 14:21:01;;;;;;;5.43;2.90;;;15.50;99.90;;;;;;5014298;28;20822;-86
2021/10/15 14:23:28;;;;;;;3.60;3.30;;;;;;;;;;5013315;28;20449;-93
2021/10/15 14:25:55;;;;;;;5.67;3.93;;;;;;;;;;5012834;28;20519;-94
2021/10/15 14:28:23;;;;;;;4.00;3.10;;;;;;;;;;4995113;28;20441;-91
2021/10/15 14:30:50;;;;;;;9.77;3.10;;;;;;;;;;4994255;28;20449;-87
2021/10/15 14:33:17;;;;;;;5.60;3.70;;;;;;;;;;4997864;28;20485;-85
2021/10/15 14:35:45;;;;;;;4.93;3.53;;;15.20;99.90;;;;;;4996178;28;20461;-88